Irkutsk, Russia
Current Conditions -  °F | °C
As of 3:30 PM on Sunday 26 Oct 2014 (Local Time) from UIII Reporting Station
Clear Clear  
Wind Chill: 38°   Ceiling: Unl
Heat Index: 45°   Visibility: 6mi
Dew Point: 23°   Wind: 16mph
Humidity: 43%   Direction: 150°SSE
Pressure: 30.09"   Gusts: NA
Location:  52.33°N, 104.24°E
Report Text: UIII 260730Z 15007MPS CAVOK 07/M05 Q1019 NOSIG RMK QFE721/096212920260
Loading
Personal Weather Stations






























Interactive Weather Map
Tropical Storm Tracking
New forecast layout! Learn more

10-Day Weather Forecast

Advertisements
Track Severe Weather on mobile